X  Stänga Metar väderdata för luftfart     ESNU Umeå Airport
Temperatur
17°C Temperatur
14°C Daggpunkt
83% Fuktighet



Vind
1 M/S
3 MPH
5 KM/T
3 KTS



310°
NV
Nuvarande omständigheter

Klar Klar
Tryck 1013.88 (hPa) - 29.94 (inHg)
Synlighet 6 (mil) - 9.7 (km)
Flygplats
Flygplatskod ESNU

Plats: Umeå Airport
Distans: 14 (km)

Metar:
ESNU 130150Z 31003KT CAVOK 17/14 Q1014

Tid: 2024-07-13 03:50 CEST